22:25
Airports
History
Links
Donate
Help keep this website running!
PayPal
Bitcoin
This page is community maintained. The information is intended for PC simulator navigation or reference.
Always use approved charts for navigation.
CYTE
Cape DorsetEdited 12-Sep-2012
Cape Dorset (CYTE)
Cape Dorset, Nunavut, Canada
4
Lat/Lng:64° 13' 48" N / 76° 31' 36" W
64.23 / -76.526668
Elevation:164'ft / 50mMSL
ID / ICAO:CYTE
Runways:1
Longest:13T-31T
Gravel 1,207m / 3,960ft
(Edited 2012-09-12) [ Sign in to Edit ]
METAR22:00 GMT 2017-09-19
Altimeter: 29.89
Visibility: 9.0 statute miles
Wind: 7 knots (from 070°)
Temp: 3°c / 37°f
Humidity: %

METAR: CYTE 192200Z AUTO 07007KT 9SM OVC025 03/00 A2989 RMK SLP128

(Powered by phpweather)
Airport Radio Frequencies
MULTICOM: 122.1
Nearby VORs <50NM
Nearby NDBs
Runway 13T / 31T
Dimensions:1207 x 29.9m 3960' x 98'ft
Surface:Gravel
Edge Lights:Medium intensity
Runway 13T [A]Runway 31T [B]
Heading:127°TH 307°TH
Lat:
Lng:
64° 14' 0.75"N
76° 32' 5.35"W
64° 13' 36.94"N
76° 30' 53.74"W
TDZ:Yes, lightedYes, lighted
(Edited 2012-09-12) [ Sign in to Edit ]
User Notes and Comments
64° 13' 48" N / 76° 31' 36" W
Distance To
Airport ID:
Nearby Airports
4 IVUJIVIK 132.5 NM
CYIK SSW 199°
4 Salluit 144.2 NM
CYZG S 169°
4 Kattiniq 203.9 NM
CTP9 SSE 150°
4 CORAL HARBOUR 205.3 NM
CYZS ( WX ) W 269°
4 AKULIVIK 241.3 NM
CYKO SSW 192°
(C) Iqaluit 243.5 NM
CYFB ( WX ) E 97°
4 PUVIRNITUQ 289.8 NM
CYPX S 184°
VFR Chart
Flight Planning at SkyVector.com